createdAt,value
2018-01-12T00:02:14.759Z,17.87
2018-01-12T00:07:15.794Z,17.80
2018-01-12T00:12:16.782Z,16.00
2018-01-12T00:17:17.788Z,16.53
2018-01-12T00:22:18.799Z,15.87
2018-01-12T00:27:20.775Z,16.00
2018-01-12T00:32:21.778Z,14.73
2018-01-12T00:37:23.766Z,14.57
2018-01-12T00:42:25.561Z,14.90
2018-01-12T00:47:26.615Z,15.23
2018-01-12T00:52:27.838Z,16.50
2018-01-12T00:57:28.882Z,15.70
2018-01-12T01:02:29.943Z,15.50
2018-01-12T01:07:31.120Z,15.90
2018-01-12T01:12:32.875Z,15.53
2018-01-12T01:17:34.075Z,16.40
2018-01-12T01:22:35.083Z,15.60
2018-01-12T01:27:36.846Z,15.67
2018-01-12T01:32:38.079Z,16.40
2018-01-12T01:37:39.855Z,15.63
2018-01-12T01:42:40.859Z,15.90
2018-01-12T01:47:42.800Z,16.40
2018-01-12T01:52:43.792Z,15.87
2018-01-12T01:57:44.840Z,15.30
2018-01-12T02:02:46.578Z,15.13
2018-01-12T02:07:47.599Z,16.63
2018-01-12T02:12:49.384Z,15.20
2018-01-12T02:17:50.543Z,16.57
2018-01-12T02:22:51.554Z,16.57
2018-01-12T02:27:52.942Z,15.73
2018-01-12T02:32:54.011Z,15.47
2018-01-12T02:37:55.210Z,16.37
2018-01-12T02:42:56.395Z,16.80
2018-01-12T02:47:57.589Z,17.20
2018-01-12T02:52:58.719Z,18.17
2018-01-12T02:57:59.752Z,18.27
2018-01-12T03:03:00.943Z,18.33
2018-01-12T03:08:02.041Z,18.43
2018-01-12T03:13:03.807Z,17.70
2018-01-12T03:18:05.015Z,17.10
2018-01-12T03:23:06.004Z,17.37
2018-01-12T03:28:07.078Z,17.47
2018-01-12T03:33:08.380Z,17.37
2018-01-12T03:38:09.386Z,18.20
2018-01-12T03:43:10.643Z,18.23
2018-01-12T03:48:11.669Z,18.63
2018-01-12T03:53:12.693Z,20.37
2018-01-12T03:58:13.915Z,19.00
2018-01-12T04:03:14.967Z,18.80
2018-01-12T04:08:16.163Z,17.40
2018-01-12T04:13:17.175Z,17.77
2018-01-12T04:18:18.434Z,17.60
2018-01-12T04:23:19.434Z,16.50
2018-01-12T04:28:20.435Z,17.90
2018-01-12T04:33:22.187Z,17.73
2018-01-12T04:38:23.392Z,17.60
2018-01-12T04:43:24.420Z,18.67
2018-01-12T04:48:25.419Z,23.10
2018-01-12T04:53:26.499Z,22.17
2018-01-12T04:58:27.576Z,21.00
2018-01-12T05:03:28.876Z,20.33
2018-01-12T05:08:29.832Z,21.07
2018-01-12T05:13:31.587Z,22.47
2018-01-12T05:18:32.608Z,22.43
2018-01-12T05:23:33.623Z,21.90
2018-01-12T05:28:34.615Z,23.53
2018-01-12T05:33:35.832Z,23.07
2018-01-12T05:38:36.846Z,25.00
2018-01-12T05:43:38.590Z,25.27
2018-01-12T05:48:39.798Z,26.40
2018-01-12T05:53:40.800Z,28.10
2018-01-12T05:58:41.808Z,29.57
2018-01-12T06:03:56.078Z,30.47
2018-01-12T06:08:57.106Z,29.20
2018-01-12T06:13:58.331Z,29.73
2018-01-12T06:18:59.343Z,28.27
2018-01-12T06:24:01.078Z,26.30
2018-01-12T06:29:02.079Z,27.00
2018-01-12T06:34:03.095Z,27.47
2018-01-12T06:39:04.108Z,28.40
2018-01-12T06:44:05.123Z,27.53
2018-01-12T06:49:06.118Z,30.10
2018-01-12T06:54:07.129Z,26.13
2018-01-12T06:59:08.138Z,26.00
2018-01-12T07:04:09.138Z,26.60
2018-01-12T07:09:10.159Z,26.20
2018-01-12T07:14:11.187Z,27.17
2018-01-12T07:19:12.436Z,24.90
2018-01-12T07:24:13.435Z,23.83
2018-01-12T07:29:14.436Z,23.23
2018-01-12T07:34:16.174Z,23.23
2018-01-12T07:39:17.249Z,22.97
2018-01-12T07:44:18.223Z,24.03
2018-01-12T07:49:19.222Z,20.87
2018-01-12T07:54:20.432Z,22.93
2018-01-12T07:59:21.455Z,21.50
2018-01-12T08:04:22.639Z,21.63
2018-01-12T08:09:24.383Z,20.57
2018-01-12T08:14:25.404Z,20.93
2018-01-12T08:19:26.410Z,20.00
2018-01-12T08:24:28.146Z,20.17
2018-01-12T08:29:29.181Z,21.20
2018-01-12T08:34:37.790Z,21.43
2018-01-12T08:39:38.807Z,19.73
2018-01-12T08:44:39.822Z,21.07
2018-01-12T08:49:41.562Z,21.17
2018-01-12T08:54:42.572Z,21.07
2018-01-12T08:59:43.584Z,22.00
2018-01-12T09:04:45.351Z,20.90
2018-01-12T09:09:46.354Z,22.00
2018-01-12T09:14:48.994Z,23.63
2018-01-12T09:19:50.227Z,23.47
2018-01-12T09:24:51.227Z,23.00
2018-01-12T09:29:52.503Z,23.70
2018-01-12T09:35:00.503Z,23.80
2018-01-12T09:45:41.820Z,22.00
2018-01-12T09:50:43.844Z,21.83
2018-01-12T09:55:44.880Z,22.40
2018-01-12T10:00:46.155Z,22.77
2018-01-12T10:05:48.116Z,24.07
2018-01-12T10:10:49.584Z,22.60
2018-01-12T10:15:50.913Z,22.80
2018-01-12T10:20:51.974Z,22.97
2018-01-12T10:25:53.312Z,22.20
2018-01-12T10:30:57.554Z,21.33
2018-01-12T10:35:59.059Z,22.40
2018-01-12T10:41:13.283Z,21.73
2018-01-12T10:46:41.695Z,23.37
2018-01-12T10:51:43.968Z,22.30
2018-01-12T10:56:45.140Z,23.07
2018-01-12T11:01:46.709Z,23.20
2018-01-12T11:06:47.827Z,20.00
2018-01-12T11:11:49.157Z,21.70
2018-01-12T11:16:51.610Z,22.63
2018-01-12T11:21:52.698Z,21.10
2018-01-12T11:26:53.932Z,21.37
2018-01-12T11:31:55.074Z,20.47
2018-01-12T11:36:56.474Z,20.67
2018-01-12T11:41:58.094Z,20.40
2018-01-12T11:46:59.119Z,21.50
2018-01-12T11:52:01.295Z,20.10
2018-01-12T11:57:02.782Z,21.23
2018-01-12T12:02:04.037Z,20.70
2018-01-12T12:07:06.194Z,20.90
2018-01-12T12:12:07.307Z,22.00
2018-01-12T12:17:08.752Z,21.30
2018-01-12T12:22:09.979Z,22.00
2018-01-12T12:27:11.829Z,20.23
2018-01-12T12:32:12.943Z,22.60
2018-01-12T12:37:14.963Z,22.50
2018-01-12T12:42:16.309Z,21.70
2018-01-12T12:47:18.239Z,22.50
2018-01-12T12:52:19.647Z,22.17
2018-01-12T12:57:24.997Z,22.33
2018-01-12T13:02:26.519Z,21.00
2018-01-12T13:07:27.623Z,22.93
2018-01-12T13:12:29.484Z,22.10
2018-01-12T13:17:30.694Z,22.20
2018-01-12T13:22:31.778Z,22.80
2018-01-12T13:27:33.032Z,23.67
2018-01-12T13:32:34.676Z,25.60
2018-01-12T13:37:38.863Z,23.07
2018-01-12T13:42:40.167Z,25.27
2018-01-12T13:47:41.312Z,24.57
2018-01-12T13:52:43.480Z,26.27
2018-01-12T13:57:44.878Z,23.10
2018-01-12T14:02:46.418Z,23.80
2018-01-12T14:07:48.615Z,25.60
2018-01-12T14:12:50.065Z,24.63
2018-01-12T14:17:51.197Z,24.87
2018-01-12T14:22:53.298Z,24.80
2018-01-12T14:27:55.327Z,25.80
2018-01-12T14:32:57.886Z,25.03
2018-01-12T14:38:00.448Z,25.07
2018-01-12T14:43:02.835Z,25.27
2018-01-12T14:48:03.858Z,26.80
2018-01-12T14:53:06.059Z,26.10
2018-01-12T14:58:07.087Z,25.23
2018-01-12T15:03:08.502Z,24.50
2018-01-12T15:08:11.691Z,26.20
2018-01-12T15:13:13.843Z,22.90
2018-01-12T15:18:17.239Z,23.87
2018-01-12T15:23:18.642Z,20.20
2018-01-12T15:28:20.005Z,22.53
2018-01-12T15:33:21.582Z,20.17
2018-01-12T15:38:22.687Z,18.03
2018-01-12T15:43:24.880Z,17.47
2018-01-12T15:48:26.832Z,18.30
2018-01-12T15:53:41.516Z,18.47
2018-01-12T15:58:43.086Z,20.50
2018-01-12T16:03:46.192Z,19.80
2018-01-12T16:08:47.524Z,20.40
2018-01-12T16:13:48.685Z,19.63
2018-01-12T16:18:54.091Z,21.03
2018-01-12T16:23:57.247Z,20.43
2018-01-12T16:28:58.659Z,20.40
2018-01-12T16:33:59.675Z,19.80
2018-01-12T16:39:00.679Z,18.43
2018-01-12T16:44:01.698Z,21.63
2018-01-12T16:49:02.739Z,20.53
2018-01-12T16:54:04.836Z,19.23
2018-01-12T16:59:07.366Z,18.13
2018-01-12T17:04:08.645Z,16.00
2018-01-12T17:09:09.722Z,17.10
2018-01-12T17:14:11.267Z,18.63
2018-01-12T17:19:13.247Z,18.60
2018-01-12T17:24:14.279Z,17.67
2018-01-12T17:29:15.643Z,19.20
2018-01-12T17:34:17.030Z,18.77
2018-01-12T17:39:18.050Z,16.73
2018-01-12T17:44:19.642Z,16.93
2018-01-12T17:49:20.855Z,18.43
2018-01-12T17:54:21.958Z,21.50
2018-01-12T17:59:22.983Z,18.03
2018-01-12T18:04:24.099Z,16.70
2018-01-12T18:09:26.772Z,17.67
2018-01-12T18:14:27.835Z,16.50
2018-01-12T18:19:28.828Z,16.50
2018-01-12T18:24:30.579Z,15.80
2018-01-12T18:29:31.605Z,16.37
2018-01-12T18:34:32.713Z,18.20
2018-01-12T18:39:34.446Z,17.30
2018-01-12T18:44:35.446Z,19.10
2018-01-12T18:49:36.446Z,17.17
2018-01-12T18:54:38.357Z,17.67
2018-01-12T18:59:39.763Z,19.40
2018-01-12T19:04:41.663Z,19.83
2018-01-12T19:09:43.394Z,17.83
2018-01-12T19:14:44.403Z,16.60
2018-01-12T19:19:45.444Z,15.50
2018-01-12T19:24:46.703Z,15.43
2018-01-12T19:29:51.291Z,15.40
2018-01-12T19:34:53.995Z,15.77
2018-01-12T19:39:55.763Z,16.00
2018-01-12T19:44:57.780Z,15.20
2018-01-12T19:49:59.316Z,16.07
2018-01-12T19:55:00.440Z,16.20
2018-01-12T20:00:01.465Z,17.17
2018-01-12T20:05:20.489Z,16.40
2018-01-12T20:10:22.328Z,15.83
2018-01-12T20:15:23.447Z,15.23
2018-01-12T20:20:24.739Z,16.70
2018-01-12T20:25:25.758Z,16.07
2018-01-12T20:30:27.509Z,16.67
2018-01-12T20:35:28.510Z,16.20
2018-01-12T20:40:29.510Z,16.00
2018-01-12T20:45:31.286Z,18.27
2018-01-12T20:50:32.291Z,18.10
2018-01-12T20:55:34.262Z,16.53
2018-01-12T21:00:35.258Z,18.03
2018-01-12T21:05:36.291Z,17.37
2018-01-12T21:10:37.290Z,17.10
2018-01-12T21:15:38.295Z,16.70
2018-01-12T21:20:39.479Z,17.07
2018-01-12T21:25:40.466Z,16.77
2018-01-12T21:30:41.458Z,16.10
2018-01-12T21:35:42.459Z,17.47
2018-01-12T21:40:43.456Z,15.87
2018-01-12T21:45:45.192Z,16.63
2018-01-12T21:50:46.393Z,16.73
2018-01-12T21:55:47.607Z,17.10
2018-01-12T22:00:49.124Z,15.63
2018-01-12T22:05:50.359Z,15.97
2018-01-12T22:10:51.597Z,17.43
2018-01-12T22:15:53.451Z,16.87
2018-01-12T22:20:54.780Z,16.47
2018-01-12T22:25:56.255Z,16.00
2018-01-12T22:30:57.527Z,16.80
2018-01-12T22:35:59.133Z,15.53
2018-01-12T22:41:00.532Z,16.17
2018-01-12T22:46:02.827Z,15.80
2018-01-12T22:51:04.533Z,16.50
2018-01-12T22:56:07.389Z,17.10
2018-01-12T23:01:08.695Z,16.60
2018-01-12T23:06:09.750Z,17.73
2018-01-12T23:11:11.824Z,16.43
2018-01-12T23:16:14.334Z,16.37
2018-01-12T23:21:15.967Z,17.83
2018-01-12T23:26:17.572Z,15.70
2018-01-12T23:31:19.370Z,16.10
2018-01-12T23:36:20.552Z,15.93
2018-01-12T23:41:21.542Z,15.30
2018-01-12T23:46:22.719Z,16.00
2018-01-12T23:51:24.157Z,15.10
2018-01-12T23:56:25.418Z,15.50
